Bradenton, FL (34201)

10:06 PM EDT on July 25, 2016 (GMT -0400)
Cedar Creek | | Change Station

Elev 52 ft 27.38 °N, 82.50 °W | Updated 1 second ago

Partly Cloudy
Partly Cloudy
80.2 °F
Feels Like 86 °F
N
0.0
Wind Variable Wind from NE

Today
High -- | Low -- °F
--% Chance of Precip.
Yesterday
High -- | Low -- °F
Precip. -- in
Pressure 30.04 in
Visibility 10.0 miles
Clouds Few 2800 ft
Heat Index 86 °F
Dew Point 76 °F
Humidity 88%
Rainfall 0.07 in
Snow Depth Not available.
6:50 AM 8:22 PM
Waning Gibbous, 60% visible
METAR KSRQ 260153Z AUTO 21005KT 10SM FEW028 30/23 A3004 RMK AO2 SLP171 T03000233
Pressure 30.04 in
Visibility 10.0 miles
Clouds Few 2800 ft
Heat Index 86 °F
Dew Point 76 °F
Humidity 88%
Rainfall 0.07 in
Snow Depth Not available.
6:50 AM 8:22 PM
Waning Gibbous, 60% visible
METAR KSRQ 260153Z AUTO 21005KT 10SM FEW028 30/23 A3004 RMK AO2 SLP171 T03000233
Record highs are possible for parts of the Northeast Monday and Tuesday, as parts of the central U.S. take a little breather from the worst of summer's dog day heat.

Expansive high pressure in the upper atmosphere will focus on parts of the East and West this week, sending heat indices well into the triple digits from the Mid-Atlantic states into the South.

10-Day Weather Forecast

Almanac

Astronomy

Jul. 25, 2016 Rise Set
Actual Time
Civil Twilight
Nautical Twilight
Astronomical Twilight
Moon
Length of Visible Light
Length of Day
Tomorrow will be .
, % of the Moon is Illuminated

Today's Extremes

State Highs State Lows

Community

WunderPhotos

Upload Photos

1,927,497 photos uploaded!

WunderBlog® & News

Nearby

Air Quality

  Air Quality AQ Index Pollutant
Not available.

Snow Depth

Station Depth Elevation

Earthquake Activity

City Distance Mag. Time & Date
Minimum magnitude displayed is 2.5.

Coastal Water Temperatures

Place Temperature

Stations

Nearby Weather Stations

Station Location Temp. Windchill Dew Point Humidity Wind Precip. Elev Updated Type
                   

Watches & Warnings

There are currently no watches in effect.